sensor_id;sensor_type;location;lat;lon;timestamp;pressure;altitude;pressure_sealevel;temperature;humidity
62655;BME280;48717;55.556;37.816;2023-11-21T00:01:33;98856.38;;;-8.79;77.96
62655;BME280;48717;55.556;37.816;2023-11-21T00:04:01;98820.88;;;-9.03;77.91
62655;BME280;48717;55.556;37.816;2023-11-21T00:06:28;98868.72;;;-8.72;78.02
62655;BME280;48717;55.556;37.816;2023-11-21T00:08:57;98835.53;;;-8.85;77.53
62655;BME280;48717;55.556;37.816;2023-11-21T00:11:24;98859.88;;;-8.77;77.33
62655;BME280;48717;55.556;37.816;2023-11-21T00:13:52;98860.44;;;-8.68;78.42
62655;BME280;48717;55.556;37.816;2023-11-21T00:16:19;98830.81;;;-8.79;77.59
62655;BME280;48717;55.556;37.816;2023-11-21T00:18:46;98852.16;;;-8.63;77.98
62655;BME280;48717;55.556;37.816;2023-11-21T00:21:13;98847.25;;;-8.60;76.78
62655;BME280;48717;55.556;37.816;2023-11-21T00:23:41;98857.28;;;-8.48;77.53
62655;BME280;48717;55.556;37.816;2023-11-21T00:26:08;98839.84;;;-8.56;77.66
62655;BME280;48717;55.556;37.816;2023-11-21T00:28:35;98853.66;;;-8.52;76.78
62655;BME280;48717;55.556;37.816;2023-11-21T00:31:03;98851.28;;;-8.49;76.56
62655;BME280;48717;55.556;37.816;2023-11-21T00:33:31;98858.16;;;-8.48;75.91
62655;BME280;48717;55.556;37.816;2023-11-21T00:35:59;98857.97;;;-8.51;77.10
62655;BME280;48717;55.556;37.816;2023-11-21T00:38:27;98843.03;;;-8.60;77.04
62655;BME280;48717;55.556;37.816;2023-11-21T00:40:54;98861.28;;;-8.54;76.97
62655;BME280;48717;55.556;37.816;2023-11-21T00:43:23;98842.47;;;-8.54;76.27
62655;BME280;48717;55.556;37.816;2023-11-21T00:45:51;98858.06;;;-8.49;76.00
62655;BME280;48717;55.556;37.816;2023-11-21T00:48:18;98852.34;;;-8.45;76.23
62655;BME280;48717;55.556;37.816;2023-11-21T00:50:47;98855.88;;;-8.43;75.46
62655;BME280;48717;55.556;37.816;2023-11-21T00:53:15;98843.44;;;-8.52;75.47
62655;BME280;48717;55.556;37.816;2023-11-21T00:55:43;98863.28;;;-8.48;75.93
62655;BME280;48717;55.556;37.816;2023-11-21T00:58:10;98870.34;;;-8.44;76.55
62655;BME280;48717;55.556;37.816;2023-11-21T01:00:37;98838.63;;;-8.62;76.03
62655;BME280;48717;55.556;37.816;2023-11-21T01:03:07;98866.78;;;-8.46;75.19
62655;BME280;48717;55.556;37.816;2023-11-21T01:05:35;98866.78;;;-8.46;75.78
62655;BME280;48717;55.556;37.816;2023-11-21T01:08:02;98856.22;;;-8.52;75.56
62655;BME280;48717;55.556;37.816;2023-11-21T01:10:29;98836.81;;;-8.63;75.91
62655;BME280;48717;55.556;37.816;2023-11-21T01:12:57;98809.47;;;-8.80;75.02
62655;BME280;48717;55.556;37.816;2023-11-21T01:15:24;98845.47;;;-8.61;75.67
62655;BME280;48717;55.556;37.816;2023-11-21T01:17:52;98817.97;;;-8.66;75.51
62655;BME280;48717;55.556;37.816;2023-11-21T01:20:20;98851.94;;;-8.53;75.88
62655;BME280;48717;55.556;37.816;2023-11-21T01:22:47;98855.59;;;-8.48;75.82
62655;BME280;48717;55.556;37.816;2023-11-21T01:25:16;98852.00;;;-8.52;75.82
62655;BME280;48717;55.556;37.816;2023-11-21T01:27:44;98811.09;;;-8.67;75.21
62655;BME280;48717;55.556;37.816;2023-11-21T01:30:12;98848.91;;;-8.46;74.60
62655;BME280;48717;55.556;37.816;2023-11-21T01:32:39;98818.31;;;-8.59;74.80
62655;BME280;48717;55.556;37.816;2023-11-21T01:35:09;98851.44;;;-8.46;75.32
62655;BME280;48717;55.556;37.816;2023-11-21T01:37:37;98849.88;;;-8.44;74.67
62655;BME280;48717;55.556;37.816;2023-11-21T01:40:06;98854.81;;;-8.47;73.80
62655;BME280;48717;55.556;37.816;2023-11-21T01:42:37;98824.31;;;-8.59;74.19
62655;BME280;48717;55.556;37.816;2023-11-21T01:45:04;98852.16;;;-8.48;73.49
62655;BME280;48717;55.556;37.816;2023-11-21T01:47:33;98865.59;;;-8.53;74.39
62655;BME280;48717;55.556;37.816;2023-11-21T01:50:02;98859.41;;;-8.56;74.92
62655;BME280;48717;55.556;37.816;2023-11-21T01:52:31;98856.06;;;-8.55;75.20
62655;BME280;48717;55.556;37.816;2023-11-21T01:54:59;98857.75;;;-8.56;73.71
62655;BME280;48717;55.556;37.816;2023-11-21T01:57:27;98857.97;;;-8.51;73.38
62655;BME280;48717;55.556;37.816;2023-11-21T01:59:56;98860.53;;;-8.51;73.21
62655;BME280;48717;55.556;37.816;2023-11-21T02:02:25;98865.66;;;-8.51;73.28
62655;BME280;48717;55.556;37.816;2023-11-21T02:04:53;98869.63;;;-8.56;74.41
62655;BME280;48717;55.556;37.816;2023-11-21T02:07:20;98871.56;;;-8.52;73.96
62655;BME280;48717;55.556;37.816;2023-11-21T02:09:51;98867.34;;;-8.52;73.44
62655;BME280;48717;55.556;37.816;2023-11-21T02:12:18;98864.72;;;-8.53;74.05
62655;BME280;48717;55.556;37.816;2023-11-21T02:14:46;98860.38;;;-8.54;74.86
62655;BME280;48717;55.556;37.816;2023-11-21T02:17:13;98862.94;;;-8.54;75.14
62655;BME280;48717;55.556;37.816;2023-11-21T02:19:41;98855.00;;;-8.59;74.45
62655;BME280;48717;55.556;37.816;2023-11-21T02:22:30;98824.50;;;-8.71;74.36
62655;BME280;48717;55.556;37.816;2023-11-21T02:24:59;98859.41;;;-8.56;74.96
62655;BME280;48717;55.556;37.816;2023-11-21T02:27:29;98833.91;;;-8.70;74.67
62655;BME280;48717;55.556;37.816;2023-11-21T02:29:57;98866.28;;;-8.55;74.01
62655;BME280;48717;55.556;37.816;2023-11-21T02:32:25;98866.38;;;-8.54;73.90
62655;BME280;48717;55.556;37.816;2023-11-21T02:34:53;98857.91;;;-8.53;74.05
62655;BME280;48717;55.556;37.816;2023-11-21T02:37:23;98862.78;;;-8.57;74.35
62655;BME280;48717;55.556;37.816;2023-11-21T02:39:50;98857.66;;;-8.57;73.65
62655;BME280;48717;55.556;37.816;2023-11-21T02:42:18;98853.25;;;-8.60;74.08
62655;BME280;48717;55.556;37.816;2023-11-21T02:44:45;98865.66;;;-8.51;74.30
62655;BME280;48717;55.556;37.816;2023-11-21T02:47:12;98870.84;;;-8.49;73.73
62655;BME280;48717;55.556;37.816;2023-11-21T02:49:39;98871.75;;;-8.49;73.58
62655;BME280;48717;55.556;37.816;2023-11-21T02:52:09;98862.47;;;-8.47;73.82
62655;BME280;48717;55.556;37.816;2023-11-21T02:54:36;98881.78;;;-8.52;73.17
62655;BME280;48717;55.556;37.816;2023-11-21T02:57:04;98889.75;;;-8.62;74.60
62655;BME280;48717;55.556;37.816;2023-11-21T02:59:31;98891.31;;;-8.65;75.02
62655;BME280;48717;55.556;37.816;2023-11-21T03:01:58;98882.66;;;-8.67;74.00
62655;BME280;48717;55.556;37.816;2023-11-21T03:04:25;98901.91;;;-8.58;73.25
62655;BME280;48717;55.556;37.816;2023-11-21T03:06:53;98891.03;;;-8.69;73.96
62655;BME280;48717;55.556;37.816;2023-11-21T03:09:20;98892.28;;;-8.62;73.33
62655;BME280;48717;55.556;37.816;2023-11-21T03:11:47;98914.50;;;-8.61;73.75
62655;BME280;48717;55.556;37.816;2023-11-21T03:14:14;98911.94;;;-8.61;73.41
62655;BME280;48717;55.556;37.816;2023-11-21T03:16:41;98908.78;;;-8.57;72.89
62655;BME280;48717;55.556;37.816;2023-11-21T03:19:08;98908.59;;;-8.60;72.66
62655;BME280;48717;55.556;37.816;2023-11-21T03:21:35;98912.13;;;-8.58;72.97
62655;BME280;48717;55.556;37.816;2023-11-21T03:24:03;98911.16;;;-8.60;72.32
62655;BME280;48717;55.556;37.816;2023-11-21T03:26:30;98881.13;;;-8.78;72.41
62655;BME280;48717;55.556;37.816;2023-11-21T03:28:57;98919.28;;;-8.53;72.20
62655;BME280;48717;55.556;37.816;2023-11-21T03:31:24;98882.88;;;-8.77;72.21
62655;BME280;48717;55.556;37.816;2023-11-21T03:33:52;98915.47;;;-8.59;72.27
62655;BME280;48717;55.556;37.816;2023-11-21T03:36:20;98913.69;;;-8.60;72.14
62655;BME280;48717;55.556;37.816;2023-11-21T03:38:48;98884.25;;;-8.69;71.31
62655;BME280;48717;55.556;37.816;2023-11-21T03:41:15;98920.97;;;-8.53;72.22
62655;BME280;48717;55.556;37.816;2023-11-21T03:43:42;98881.22;;;-8.76;71.38
62655;BME280;48717;55.556;37.816;2023-11-21T03:46:13;98921.91;;;-8.51;71.90
62655;BME280;48717;55.556;37.816;2023-11-21T03:48:42;98896.41;;;-8.65;71.79
62655;BME280;48717;55.556;37.816;2023-11-21T03:51:09;98917.91;;;-8.61;71.76
62655;BME280;48717;55.556;37.816;2023-11-21T03:53:36;98905.94;;;-8.62;71.23
62655;BME280;48717;55.556;37.816;2023-11-21T03:56:04;98903.69;;;-8.57;70.77
62655;BME280;48717;55.556;37.816;2023-11-21T03:58:32;98908.78;;;-8.57;70.64
62655;BME280;48717;55.556;37.816;2023-11-21T04:00:59;98922.78;;;-8.50;71.60
62655;BME280;48717;55.556;37.816;2023-11-21T04:03:26;98908.09;;;-8.55;71.90
62655;BME280;48717;55.556;37.816;2023-11-21T04:05:53;98904.47;;;-8.58;71.10
62655;BME280;48717;55.556;37.816;2023-11-21T04:08:21;98921.91;;;-8.51;70.67
62655;BME280;48717;55.556;37.816;2023-11-21T04:10:48;98915.66;;;-8.56;71.44
62655;BME280;48717;55.556;37.816;2023-11-21T04:13:15;98916.72;;;-8.53;71.48
62655;BME280;48717;55.556;37.816;2023-11-21T04:15:42;98910.81;;;-8.52;70.88
62655;BME280;48717;55.556;37.816;2023-11-21T04:18:09;98898.88;;;-8.66;70.14
62655;BME280;48717;55.556;37.816;2023-11-21T04:20:37;98888.50;;;-8.69;70.09
62655;BME280;48717;55.556;37.816;2023-11-21T04:23:04;98908.59;;;-8.60;70.69
62655;BME280;48717;55.556;37.816;2023-11-21T04:25:31;98892.34;;;-8.76;70.19
62655;BME280;48717;55.556;37.816;2023-11-21T04:27:58;98897.63;;;-8.73;70.75
62655;BME280;48717;55.556;37.816;2023-11-21T04:30:25;98925.53;;;-8.62;70.24
62655;BME280;48717;55.556;37.816;2023-11-21T04:32:52;98900.00;;;-8.76;70.40
62655;BME280;48717;55.556;37.816;2023-11-21T04:35:19;98917.84;;;-8.62;71.30
62655;BME280;48717;55.556;37.816;2023-11-21T04:37:46;98917.66;;;-8.66;70.48
62655;BME280;48717;55.556;37.816;2023-11-21T04:40:14;98905.53;;;-8.83;70.77
62655;BME280;48717;55.556;37.816;2023-11-21T04:42:41;98941.47;;;-8.67;71.56
62655;BME280;48717;55.556;37.816;2023-11-21T04:45:09;98928.78;;;-8.65;71.31
62655;BME280;48717;55.556;37.816;2023-11-21T04:47:37;98909.25;;;-8.78;71.47
62655;BME280;48717;55.556;37.816;2023-11-21T04:50:04;98927.09;;;-8.65;70.65
62655;BME280;48717;55.556;37.816;2023-11-21T04:52:32;98934.16;;;-8.60;70.44
62655;BME280;48717;55.556;37.816;2023-11-21T04:55:00;98894.69;;;-8.79;71.05
62655;BME280;48717;55.556;37.816;2023-11-21T04:57:30;98923.56;;;-8.67;71.35
62655;BME280;48717;55.556;37.816;2023-11-21T04:59:57;98880.22;;;-8.94;72.17
62655;BME280;48717;55.556;37.816;2023-11-21T05:02:24;98900.59;;;-8.80;71.04
62655;BME280;48717;55.556;37.816;2023-11-21T05:05:02;98925.13;;;-8.69;71.60
62655;BME280;48717;55.556;37.816;2023-11-21T05:07:33;98939.06;;;-8.63;71.30
62655;BME280;48717;55.556;37.816;2023-11-21T05:10:06;98937.69;;;-8.58;72.46
62655;BME280;48717;55.556;37.816;2023-11-21T05:12:40;98953.72;;;-8.61;72.86
62655;BME280;48717;55.556;37.816;2023-11-21T05:15:08;98911.53;;;-8.83;72.84
62655;BME280;48717;55.556;37.816;2023-11-21T05:17:39;98938.72;;;-8.70;73.08
62655;BME280;48717;55.556;37.816;2023-11-21T05:20:12;98962.19;;;-8.62;72.66
62655;BME280;48717;55.556;37.816;2023-11-21T05:22:40;98953.72;;;-8.61;72.55
62655;BME280;48717;55.556;37.816;2023-11-21T05:25:09;98916.53;;;-8.84;72.31
62655;BME280;48717;55.556;37.816;2023-11-21T05:27:36;98964.63;;;-8.63;73.53
62655;BME280;48717;55.556;37.816;2023-11-21T05:30:04;98963.94;;;-8.61;73.31
62655;BME280;48717;55.556;37.816;2023-11-21T05:32:40;98931.44;;;-8.77;72.19
62655;BME280;48717;55.556;37.816;2023-11-21T05:35:10;98954.69;;;-8.59;72.09
62655;BME280;48717;55.556;37.816;2023-11-21T05:37:42;98900.44;;;-8.97;72.39
62655;BME280;48717;55.556;37.816;2023-11-21T05:40:09;98947.16;;;-8.71;72.12
62655;BME280;48717;55.556;37.816;2023-11-21T05:42:37;98941.72;;;-8.62;72.33
62655;BME280;48717;55.556;37.816;2023-11-21T05:45:06;98956.38;;;-8.59;72.01
62655;BME280;48717;55.556;37.816;2023-11-21T05:47:38;98942.06;;;-8.71;72.33
62655;BME280;48717;55.556;37.816;2023-11-21T05:50:08;98963.56;;;-8.67;73.12
62655;BME280;48717;55.556;37.816;2023-11-21T05:52:45;98958.47;;;-8.67;73.10
62655;BME280;48717;55.556;37.816;2023-11-21T05:55:13;98971.19;;;-8.54;73.15
62655;BME280;48717;55.556;37.816;2023-11-21T05:57:42;98956.91;;;-8.65;72.60
62655;BME280;48717;55.556;37.816;2023-11-21T06:00:12;98936.56;;;-8.77;73.59
62655;BME280;48717;55.556;37.816;2023-11-21T06:02:49;98985.47;;;-8.57;73.22
62655;BME280;48717;55.556;37.816;2023-11-21T06:05:19;98978.00;;;-8.68;74.27
62655;BME280;48717;55.556;37.816;2023-11-21T06:07:48;98963.19;;;-8.73;74.26
62655;BME280;48717;55.556;37.816;2023-11-21T06:10:15;98971.56;;;-8.76;74.19
62655;BME280;48717;55.556;37.816;2023-11-21T06:12:44;98974.72;;;-8.80;74.32
62655;BME280;48717;55.556;37.816;2023-11-21T06:15:12;98967.13;;;-8.79;74.96
62655;BME280;48717;55.556;37.816;2023-11-21T06:17:42;98982.38;;;-8.80;75.22
62655;BME280;48717;55.556;37.816;2023-11-21T06:20:11;98974.88;;;-8.77;76.04
62655;BME280;48717;55.556;37.816;2023-11-21T06:22:42;98996.41;;;-8.60;74.94
62655;BME280;48717;55.556;37.816;2023-11-21T06:25:11;98985.47;;;-8.57;75.32
62655;BME280;48717;55.556;37.816;2023-11-21T06:27:41;98993.25;;;-8.56;74.38
62655;BME280;48717;55.556;37.816;2023-11-21T06:30:09;98989.91;;;-8.55;75.49
62655;BME280;48717;55.556;37.816;2023-11-21T06:32:37;98999.59;;;-8.49;75.98
62655;BME280;48717;55.556;37.816;2023-11-21T06:35:05;98995.72;;;-8.57;75.70
62655;BME280;48717;55.556;37.816;2023-11-21T06:37:33;98958.78;;;-8.76;76.18
62655;BME280;48717;55.556;37.816;2023-11-21T06:40:00;99004.88;;;-8.46;76.50
62655;BME280;48717;55.556;37.816;2023-11-21T06:42:30;98967.78;;;-8.68;76.01
62655;BME280;48717;55.556;37.816;2023-11-21T06:44:57;98995.34;;;-8.48;76.60
62655;BME280;48717;55.556;37.816;2023-11-21T06:47:25;98965.53;;;-8.63;76.23
62655;BME280;48717;55.556;37.816;2023-11-21T06:49:53;98976.13;;;-8.57;76.04
62655;BME280;48717;55.556;37.816;2023-11-21T06:52:20;98976.47;;;-8.50;75.83
62655;BME280;48717;55.556;37.816;2023-11-21T06:54:48;98977.03;;;-8.41;76.50
62655;BME280;48717;55.556;37.816;2023-11-21T06:57:18;98995.19;;;-8.36;75.96
62655;BME280;48717;55.556;37.816;2023-11-21T06:59:45;98978.53;;;-8.45;75.92
62655;BME280;48717;55.556;37.816;2023-11-21T07:02:12;99001.31;;;-8.34;74.86
62655;BME280;48717;55.556;37.816;2023-11-21T07:04:40;98992.03;;;-8.32;75.27
62655;BME280;48717;55.556;37.816;2023-11-21T07:07:12;99000.72;;;-8.30;74.38
62655;BME280;48717;55.556;37.816;2023-11-21T07:09:39;98987.13;;;-8.29;74.94
62655;BME280;48717;55.556;37.816;2023-11-21T07:12:06;98996.16;;;-8.21;75.94
62655;BME280;48717;55.556;37.816;2023-11-21T07:14:34;98991.44;;;-8.28;74.88
62655;BME280;48717;55.556;37.816;2023-11-21T07:17:02;98950.22;;;-8.48;75.19
62655;BME280;48717;55.556;37.816;2023-11-21T07:19:29;99005.38;;;-8.09;75.00
62655;BME280;48717;55.556;37.816;2023-11-21T07:21:57;99002.34;;;-8.02;74.73
62655;BME280;48717;55.556;37.816;2023-11-21T07:24:24;98984.09;;;-8.08;74.64
62655;BME280;48717;55.556;37.816;2023-11-21T07:26:53;98999.81;;;-8.02;72.91
62655;BME280;48717;55.556;37.816;2023-11-21T07:29:24;98995.69;;;-8.00;72.63
62655;BME280;48717;55.556;37.816;2023-11-21T07:31:56;99007.47;;;-8.02;72.55
62655;BME280;48717;55.556;37.816;2023-11-21T07:34:24;99005.78;;;-8.17;73.61
62655;BME280;48717;55.556;37.816;2023-11-21T07:36:51;99004.78;;;-8.19;73.89
62655;BME280;48717;55.556;37.816;2023-11-21T07:39:18;99009.91;;;-8.19;73.53
62655;BME280;48717;55.556;37.816;2023-11-21T07:41:45;99001.25;;;-8.21;73.43
62655;BME280;48717;55.556;37.816;2023-11-21T07:44:18;99000.66;;;-8.17;74.64
62655;BME280;48717;55.556;37.816;2023-11-21T07:46:48;99006.03;;;-8.12;73.98
62655;BME280;48717;55.556;37.816;2023-11-21T07:49:17;98974.22;;;-8.31;73.73
62655;BME280;48717;55.556;37.816;2023-11-21T07:51:47;98954.97;;;-8.39;72.52
62655;BME280;48717;55.556;37.816;2023-11-21T07:54:15;98977.25;;;-8.23;72.55
62655;BME280;48717;55.556;37.816;2023-11-21T07:56:43;98972.53;;;-8.17;71.77
62655;BME280;48717;55.556;37.816;2023-11-21T07:59:10;99000.19;;;-7.96;71.43
62655;BME280;48717;55.556;37.816;2023-11-21T08:01:38;98967.63;;;-7.98;71.41
62655;BME280;48717;55.556;37.816;2023-11-21T08:04:07;98970.09;;;-8.00;70.17
62655;BME280;48717;55.556;37.816;2023-11-21T08:06:35;98956.97;;;-8.20;70.26
62655;BME280;48717;55.556;37.816;2023-11-21T08:09:02;98993.28;;;-7.97;70.25
62655;BME280;48717;55.556;37.816;2023-11-21T08:11:30;98983.50;;;-8.04;71.07
62655;BME280;48717;55.556;37.816;2023-11-21T08:13:59;98999.72;;;-7.89;70.68
62655;BME280;48717;55.556;37.816;2023-11-21T08:16:26;98986.31;;;-7.84;70.82
62655;BME280;48717;55.556;37.816;2023-11-21T08:18:54;98991.25;;;-7.88;70.62
62655;BME280;48717;55.556;37.816;2023-11-21T08:21:22;98988.00;;;-8.00;69.85
62655;BME280;48717;55.556;37.816;2023-11-21T08:23:51;98990.41;;;-7.88;69.17
62655;BME280;48717;55.556;37.816;2023-11-21T08:26:22;98982.44;;;-7.93;69.45
62655;BME280;48717;55.556;37.816;2023-11-21T08:28:50;99001.50;;;-7.73;68.91
62655;BME280;48717;55.556;37.816;2023-11-21T08:31:26;99005.94;;;-7.70;67.36
62655;BME280;48717;55.556;37.816;2023-11-21T08:33:53;98993.94;;;-7.71;68.09
62655;BME280;48717;55.556;37.816;2023-11-21T08:36:24;98998.34;;;-7.53;67.47
62655;BME280;48717;55.556;37.816;2023-11-21T08:38:51;99004.19;;;-7.41;67.49
62655;BME280;48717;55.556;37.816;2023-11-21T08:41:19;99007.38;;;-7.45;67.34
62655;BME280;48717;55.556;37.816;2023-11-21T08:43:49;98991.19;;;-7.59;67.19
62655;BME280;48717;55.556;37.816;2023-11-21T08:46:18;98974.69;;;-7.79;66.92
62655;BME280;48717;55.556;37.816;2023-11-21T08:48:46;98980.69;;;-7.79;67.13
62655;BME280;48717;55.556;37.816;2023-11-21T08:51:14;98999.25;;;-7.68;66.79
62655;BME280;48717;55.556;37.816;2023-11-21T08:53:41;98988.28;;;-7.65;66.83
62655;BME280;48717;55.556;37.816;2023-11-21T08:56:12;99011.59;;;-7.45;66.27
62655;BME280;48717;55.556;37.816;2023-11-21T08:58:41;99011.88;;;-7.56;67.19
62655;BME280;48717;55.556;37.816;2023-11-21T09:01:09;99012.69;;;-7.42;66.62
62655;BME280;48717;55.556;37.816;2023-11-21T09:03:36;99009.84;;;-7.31;66.51
62655;BME280;48717;55.556;37.816;2023-11-21T09:06:04;98976.63;;;-7.60;66.32
62655;BME280;48717;55.556;37.816;2023-11-21T09:08:32;98998.16;;;-7.56;65.74
62655;BME280;48717;55.556;37.816;2023-11-21T09:10:59;99026.81;;;-7.34;66.32
62655;BME280;48717;55.556;37.816;2023-11-21T09:13:26;99022.22;;;-7.39;66.14
62655;BME280;48717;55.556;37.816;2023-11-21T09:15:54;99029.09;;;-7.23;65.95
62655;BME280;48717;55.556;37.816;2023-11-21T09:21:38;99026.63;;;-7.37;64.62
62655;BME280;48717;55.556;37.816;2023-11-21T09:24:06;98992.69;;;-7.63;65.03
62655;BME280;48717;55.556;37.816;2023-11-21T09:26:35;99037.91;;;-7.33;65.82
62655;BME280;48717;55.556;37.816;2023-11-21T09:29:02;99037.06;;;-7.34;64.71
62655;BME280;48717;55.556;37.816;2023-11-21T09:31:30;99000.56;;;-7.60;64.30
62655;BME280;48717;55.556;37.816;2023-11-21T09:33:58;99036.69;;;-7.40;63.95
62655;BME280;48717;55.556;37.816;2023-11-21T09:36:25;99028.19;;;-7.39;64.26
62655;BME280;48717;55.556;37.816;2023-11-21T09:38:54;99016.28;;;-7.53;63.97
62655;BME280;48717;55.556;37.816;2023-11-21T09:41:58;99036.53;;;-7.43;64.45
62655;BME280;48717;55.556;37.816;2023-11-21T09:44:35;99034.59;;;-7.47;63.65
62655;BME280;48717;55.556;37.816;2023-11-21T09:47:04;98998.63;;;-7.64;63.82
62655;BME280;48717;55.556;37.816;2023-11-21T09:49:33;99025.38;;;-7.43;64.43
62655;BME280;48717;55.556;37.816;2023-11-21T09:52:01;99043.22;;;-7.30;64.66
62655;BME280;48717;55.556;37.816;2023-11-21T09:54:31;99037.06;;;-7.34;63.89
62655;BME280;48717;55.556;37.816;2023-11-21T09:56:59;99027.06;;;-7.29;64.04
62655;BME280;48717;55.556;37.816;2023-11-21T09:59:30;99044.28;;;-7.26;64.28
62655;BME280;48717;55.556;37.816;2023-11-21T10:01:58;99031.47;;;-7.26;63.83
62655;BME280;48717;55.556;37.816;2023-11-21T10:04:25;99042.00;;;-7.22;64.07
62655;BME280;48717;55.556;37.816;2023-11-21T10:06:54;99049.78;;;-7.20;64.84
62655;BME280;48717;55.556;37.816;2023-11-21T10:09:23;99030.69;;;-7.40;64.12
62655;BME280;48717;55.556;37.816;2023-11-21T10:11:52;99004.72;;;-7.62;64.74
62655;BME280;48717;55.556;37.816;2023-11-21T10:14:24;99029.09;;;-7.53;64.33
62655;BME280;48717;55.556;37.816;2023-11-21T10:16:53;99023.63;;;-7.60;65.22
62655;BME280;48717;55.556;37.816;2023-11-21T10:19:21;99003.03;;;-7.61;64.36
62655;BME280;48717;55.556;37.816;2023-11-21T10:21:49;99000.13;;;-7.67;63.46
62655;BME280;48717;55.556;37.816;2023-11-21T10:24:18;99001.19;;;-7.64;64.18
62655;BME280;48717;55.556;37.816;2023-11-21T10:26:45;99027.44;;;-7.38;63.24
62655;BME280;48717;55.556;37.816;2023-11-21T10:29:20;99031.75;;;-7.37;63.24
62655;BME280;48717;55.556;37.816;2023-11-21T10:31:50;99033.31;;;-7.39;64.38
62655;BME280;48717;55.556;37.816;2023-11-21T10:34:19;99013.72;;;-7.53;64.77
62655;BME280;48717;55.556;37.816;2023-11-21T10:36:47;99040.22;;;-7.38;64.90
62655;BME280;48717;55.556;37.816;2023-11-21T10:39:20;99034.50;;;-7.49;64.98
62655;BME280;48717;55.556;37.816;2023-11-21T10:41:48;99029.47;;;-7.47;66.47
62655;BME280;48717;55.556;37.816;2023-11-21T10:44:17;99005.25;;;-7.67;66.29
62655;BME280;48717;55.556;37.816;2023-11-21T10:46:53;98992.34;;;-7.84;66.75
62655;BME280;48717;55.556;37.816;2023-11-21T10:49:27;99029.09;;;-7.53;66.84
62655;BME280;48717;55.556;37.816;2023-11-21T10:51:55;99042.69;;;-7.54;66.95
62655;BME280;48717;55.556;37.816;2023-11-21T10:54:24;99037.38;;;-7.57;67.59
62655;BME280;48717;55.556;37.816;2023-11-21T10:57:00;99031.41;;;-7.58;66.95
62655;BME280;48717;55.556;37.816;2023-11-21T10:59:30;99042.50;;;-7.57;67.49
62655;BME280;48717;55.556;37.816;2023-11-21T11:02:01;99047.97;;;-7.66;66.61
62655;BME280;48717;55.556;37.816;2023-11-21T11:04:31;99031.00;;;-7.79;67.15
62655;BME280;48717;55.556;37.816;2023-11-21T11:07:02;99046.63;;;-7.75;68.63
62655;BME280;48717;55.556;37.816;2023-11-21T11:09:32;99048.50;;;-7.72;68.48
62655;BME280;48717;55.556;37.816;2023-11-21T11:12:04;99052.09;;;-7.68;69.48
62655;BME280;48717;55.556;37.816;2023-11-21T11:14:32;99057.94;;;-7.71;68.63
62655;BME280;48717;55.556;37.816;2023-11-21T11:17:00;99058.81;;;-7.70;69.87
62655;BME280;48717;55.556;37.816;2023-11-21T11:19:29;99059.78;;;-7.68;68.04
62655;BME280;48717;55.556;37.816;2023-11-21T11:30:31;99066.66;;;-7.82;68.44
62655;BME280;48717;55.556;37.816;2023-11-21T11:36:48;99064.09;;;-7.82;69.03
62655;BME280;48717;55.556;37.816;2023-11-21T11:38:47;99052.06;;;-7.83;68.48
62655;BME280;48717;55.556;37.816;2023-11-21T11:41:27;99051.66;;;-7.76;68.36
62655;BME280;48717;55.556;37.816;2023-11-21T11:43:56;99061.72;;;-7.79;67.77
62655;BME280;48717;55.556;37.816;2023-11-21T11:46:44;99016.31;;;-7.97;69.15
62655;BME280;48717;55.556;37.816;2023-11-21T11:49:24;99046.69;;;-7.88;68.68
62655;BME280;48717;55.556;37.816;2023-11-21T11:52:33;99061.72;;;-7.79;68.31
62655;BME280;48717;55.556;37.816;2023-11-21T11:55:12;99063.22;;;-7.83;69.33
62655;BME280;48717;55.556;37.816;2023-11-21T11:57:42;99052.53;;;-7.91;68.03
62655;BME280;48717;55.556;37.816;2023-11-21T12:02:58;99054.38;;;-7.88;68.44
62655;BME280;48717;55.556;37.816;2023-11-21T12:05:27;99062.75;;;-7.91;68.53
62655;BME280;48717;55.556;37.816;2023-11-21T12:08:04;99071.09;;;-7.80;67.68
62655;BME280;48717;55.556;37.816;2023-11-21T12:10:38;99053.66;;;-7.86;69.05
62655;BME280;48717;55.556;37.816;2023-11-21T12:13:09;99068.63;;;-7.78;69.24
62655;BME280;48717;55.556;37.816;2023-11-21T12:15:38;99034.75;;;-8.03;69.55
62655;BME280;48717;55.556;37.816;2023-11-21T12:18:07;99077.88;;;-7.80;68.67
62655;BME280;48717;55.556;37.816;2023-11-21T12:20:34;99070.78;;;-7.84;68.32
62655;BME280;48717;55.556;37.816;2023-11-21T12:23:09;99066.47;;;-7.86;68.66
62655;BME280;48717;55.556;37.816;2023-11-21T12:25:38;99039.94;;;-8.01;67.80
62655;BME280;48717;55.556;37.816;2023-11-21T12:28:09;99065.72;;;-7.98;67.24
62655;BME280;48717;55.556;37.816;2023-11-21T12:30:36;99082.78;;;-7.83;67.99
62655;BME280;48717;55.556;37.816;2023-11-21T12:33:05;99062.19;;;-8.00;67.47
62655;BME280;48717;55.556;37.816;2023-11-21T12:35:36;99070.69;;;-7.86;67.35
62655;BME280;48717;55.556;37.816;2023-11-21T12:38:04;99082.94;;;-7.67;67.40
62655;BME280;48717;55.556;37.816;2023-11-21T12:40:32;99053.16;;;-7.80;67.76
62655;BME280;48717;55.556;37.816;2023-11-21T12:43:00;99042.44;;;-7.88;67.93
62655;BME280;48717;55.556;37.816;2023-11-21T12:45:32;99070.00;;;-7.83;68.06
62655;BME280;48717;55.556;37.816;2023-11-21T12:48:01;99073.63;;;-7.80;68.27
62655;BME280;48717;55.556;37.816;2023-11-21T12:50:35;99072.56;;;-7.83;68.15
62655;BME280;48717;55.556;37.816;2023-11-21T12:53:05;99094.22;;;-7.78;68.71
62655;BME280;48717;55.556;37.816;2023-11-21T12:55:33;99073.78;;;-7.92;69.16
62655;BME280;48717;55.556;37.816;2023-11-21T12:58:09;99056.19;;;-8.01;69.21
62655;BME280;48717;55.556;37.816;2023-11-21T13:00:46;99073.41;;;-7.98;70.08
62655;BME280;48717;55.556;37.816;2023-11-21T13:03:15;99090.22;;;-7.88;70.56
62655;BME280;48717;55.556;37.816;2023-11-21T13:05:47;99075.09;;;-7.98;70.83
62655;BME280;48717;55.556;37.816;2023-11-21T13:08:21;99080.22;;;-7.98;72.07
62655;BME280;48717;55.556;37.816;2023-11-21T13:10:55;99090.44;;;-7.98;71.79
62655;BME280;48717;55.556;37.816;2023-11-21T13:13:27;99048.25;;;-8.19;72.17
62655;BME280;48717;55.556;37.816;2023-11-21T13:15:59;99076.09;;;-8.10;72.86
62655;BME280;48717;55.556;37.816;2023-11-21T13:18:33;99108.81;;;-7.91;72.24